createdAt,value
2022-08-19T00:02:15.856Z,19.88
2022-08-19T00:04:42.932Z,19.93
2022-08-19T00:07:10.546Z,19.91
2022-08-19T00:09:37.771Z,19.88
2022-08-19T00:12:06.483Z,19.90
2022-08-19T00:14:33.913Z,19.93
2022-08-19T00:17:04.056Z,20.00
2022-08-19T00:19:32.236Z,19.99
2022-08-19T00:22:00.209Z,20.01
2022-08-19T00:24:28.334Z,19.97
2022-08-19T00:26:57.756Z,19.94
2022-08-19T00:29:44.946Z,19.98
2022-08-19T00:32:13.203Z,19.96
2022-08-19T00:34:41.073Z,19.93
2022-08-19T00:37:08.316Z,19.96
2022-08-19T00:39:35.603Z,19.93
2022-08-19T00:42:03.281Z,19.92
2022-08-19T00:44:31.517Z,19.90
2022-08-19T00:47:01.155Z,19.86
2022-08-19T00:49:42.547Z,19.88
2022-08-19T00:52:24.466Z,19.88
2022-08-19T00:54:54.423Z,19.85
2022-08-19T00:57:37.321Z,19.79
2022-08-19T01:00:15.840Z,19.84
2022-08-19T01:02:44.410Z,19.84
2022-08-19T01:05:24.170Z,19.84
2022-08-19T01:07:52.756Z,19.83
2022-08-19T01:10:33.623Z,19.91
2022-08-19T01:13:06.213Z,19.77
2022-08-19T01:15:57.507Z,19.74
2022-08-19T01:18:30.002Z,19.75
2022-08-19T01:21:10.342Z,19.76
2022-08-19T01:23:46.150Z,19.67
2022-08-19T01:26:26.069Z,19.60
2022-08-19T01:29:01.090Z,19.58
2022-08-19T01:31:33.509Z,19.51
2022-08-19T01:34:03.511Z,19.51
2022-08-19T01:36:48.401Z,19.45
2022-08-19T01:39:26.667Z,19.43
2022-08-19T01:41:55.483Z,19.42
2022-08-19T01:44:25.160Z,19.46
2022-08-19T01:46:53.215Z,19.36
2022-08-19T01:49:26.250Z,19.34
2022-08-19T01:51:54.937Z,19.43
2022-08-19T01:54:27.589Z,19.39
2022-08-19T01:57:09.522Z,19.32
2022-08-19T01:59:37.589Z,19.37
2022-08-19T02:02:09.526Z,19.39
2022-08-19T02:04:39.207Z,19.33
2022-08-19T02:07:09.276Z,19.26
2022-08-19T02:09:37.124Z,19.32
2022-08-19T02:12:07.638Z,19.29
2022-08-19T02:14:37.542Z,19.23
2022-08-19T02:17:05.484Z,19.22
2022-08-19T02:19:33.664Z,19.18
2022-08-19T02:22:01.863Z,19.16
2022-08-19T02:24:29.674Z,19.22
2022-08-19T02:26:57.010Z,19.21
2022-08-19T02:29:24.241Z,19.24
2022-08-19T02:31:51.555Z,19.21
2022-08-19T02:34:18.963Z,19.22
2022-08-19T02:36:46.277Z,19.21
2022-08-19T02:39:20.074Z,19.26
2022-08-19T02:41:47.191Z,19.22
2022-08-19T02:44:29.512Z,19.22
2022-08-19T02:46:58.629Z,19.20
2022-08-19T02:49:25.778Z,19.19
2022-08-19T02:51:52.982Z,19.19
2022-08-19T02:54:20.344Z,19.19
2022-08-19T02:56:47.697Z,19.22
2022-08-19T02:59:14.967Z,19.17
2022-08-19T03:01:43.418Z,19.13
2022-08-19T03:04:16.694Z,19.08
2022-08-19T03:06:48.256Z,19.09
2022-08-19T03:09:17.236Z,19.07
2022-08-19T03:11:44.573Z,19.06
2022-08-19T03:14:13.905Z,19.03
2022-08-19T03:16:53.197Z,19.02
2022-08-19T03:19:22.517Z,19.02
2022-08-19T03:21:52.450Z,19.09
2022-08-19T03:24:21.654Z,19.01
2022-08-19T03:26:58.715Z,18.99
2022-08-19T03:29:32.056Z,19.03
2022-08-19T03:32:07.663Z,19.05
2022-08-19T03:34:54.317Z,19.05
2022-08-19T03:37:21.874Z,19.03
2022-08-19T03:39:49.033Z,19.00
2022-08-19T03:42:32.205Z,18.97
2022-08-19T03:45:08.269Z,18.95
2022-08-19T03:47:35.376Z,18.95
2022-08-19T03:50:03.247Z,18.94
2022-08-19T03:52:30.220Z,18.98
2022-08-19T03:54:57.418Z,18.97
2022-08-19T03:57:31.846Z,18.94
2022-08-19T04:00:12.697Z,18.97
2022-08-19T04:02:42.369Z,18.97
2022-08-19T04:05:09.985Z,18.99
2022-08-19T04:07:37.023Z,19.02
2022-08-19T04:10:05.775Z,19.01
2022-08-19T04:12:33.474Z,19.04
2022-08-19T04:15:00.702Z,19.04
2022-08-19T04:17:27.787Z,19.07
2022-08-19T04:19:54.894Z,19.07
2022-08-19T04:22:21.964Z,19.08
2022-08-19T04:24:49.113Z,19.06
2022-08-19T04:27:17.593Z,19.09
2022-08-19T04:29:44.670Z,19.09
2022-08-19T04:32:12.004Z,19.12
2022-08-19T04:35:01.253Z,19.14
2022-08-19T04:37:34.697Z,19.14
2022-08-19T04:40:23.345Z,19.20
2022-08-19T04:42:50.512Z,19.26
2022-08-19T04:45:17.833Z,19.36
2022-08-19T04:47:49.200Z,19.39
2022-08-19T04:50:27.438Z,19.43
2022-08-19T04:52:56.617Z,19.49
2022-08-19T04:55:26.739Z,19.53
2022-08-19T04:57:56.161Z,19.62
2022-08-19T05:00:24.546Z,19.68
2022-08-19T05:02:52.013Z,19.75
2022-08-19T05:05:20.897Z,19.81
2022-08-19T05:07:48.939Z,19.85
2022-08-19T05:10:16.147Z,19.91
2022-08-19T05:12:43.229Z,19.99
2022-08-19T05:15:11.012Z,19.97
2022-08-19T05:17:39.230Z,19.96
2022-08-19T05:20:40.473Z,20.10
2022-08-19T05:23:12.908Z,20.19
2022-08-19T05:25:47.755Z,20.38
2022-08-19T05:28:14.838Z,20.47
2022-08-19T05:30:47.187Z,20.50
2022-08-19T05:33:15.322Z,20.58
2022-08-19T05:35:42.630Z,20.54
2022-08-19T05:38:10.017Z,20.46
2022-08-19T05:40:39.145Z,20.38
2022-08-19T05:43:09.241Z,20.31
2022-08-19T05:45:43.213Z,20.23
2022-08-19T05:48:13.484Z,20.30
2022-08-19T05:50:42.928Z,20.29
2022-08-19T05:53:10.131Z,20.46
2022-08-19T05:55:39.546Z,20.50
2022-08-19T05:58:08.723Z,20.49
2022-08-19T06:00:38.399Z,20.56
2022-08-19T06:03:12.685Z,20.56
2022-08-19T06:05:49.445Z,20.57
2022-08-19T06:08:20.738Z,20.56
2022-08-19T06:11:18.324Z,20.57
2022-08-19T06:13:51.573Z,20.58
2022-08-19T06:16:23.508Z,20.61
2022-08-19T06:18:54.357Z,20.50
2022-08-19T06:21:29.738Z,20.59
2022-08-19T06:23:58.561Z,20.75
2022-08-19T06:26:26.043Z,20.67
2022-08-19T06:28:53.694Z,20.69
2022-08-19T06:31:28.009Z,20.79
2022-08-19T06:33:55.537Z,20.93
2022-08-19T06:36:32.596Z,21.04
2022-08-19T06:39:04.802Z,21.02
2022-08-19T06:41:36.389Z,20.99
2022-08-19T06:44:07.221Z,21.03
2022-08-19T06:46:43.174Z,20.91
2022-08-19T06:49:15.088Z,20.87
2022-08-19T06:51:50.002Z,20.94
2022-08-19T06:54:20.625Z,21.06
2022-08-19T06:56:48.304Z,21.20
2022-08-19T06:59:28.255Z,21.31
2022-08-19T07:01:59.829Z,21.39
2022-08-19T07:04:33.492Z,21.48
2022-08-19T07:07:20.173Z,21.59
2022-08-19T07:09:55.361Z,21.70
2022-08-19T07:12:33.962Z,21.64
2022-08-19T07:15:10.490Z,21.68
2022-08-19T07:17:40.318Z,21.56
2022-08-19T07:20:11.974Z,21.72
2022-08-19T07:22:41.194Z,21.69
2022-08-19T07:25:11.147Z,21.79
2022-08-19T07:27:39.826Z,21.86
2022-08-19T07:30:12.249Z,21.86
2022-08-19T07:32:41.297Z,21.87
2022-08-19T07:35:10.501Z,21.99
2022-08-19T07:37:39.351Z,22.09
2022-08-19T07:40:09.175Z,22.19
2022-08-19T07:42:36.530Z,22.26
2022-08-19T07:45:07.013Z,22.32
2022-08-19T07:47:49.678Z,22.43
2022-08-19T07:50:21.083Z,22.32
2022-08-19T07:52:50.743Z,22.34
2022-08-19T07:55:42.683Z,22.42
2022-08-19T07:58:17.591Z,22.46
2022-08-19T08:00:49.211Z,22.46
2022-08-19T08:03:21.830Z,22.49
2022-08-19T08:06:07.683Z,22.50
2022-08-19T08:08:53.385Z,22.46
2022-08-19T08:11:24.050Z,22.33
2022-08-19T08:14:00.319Z,22.36
2022-08-19T08:16:32.996Z,22.30
2022-08-19T08:19:01.999Z,22.30
2022-08-19T08:21:29.253Z,22.23
2022-08-19T08:23:56.929Z,22.26
2022-08-19T08:26:26.076Z,22.30
2022-08-19T08:28:54.914Z,22.22
2022-08-19T08:31:22.012Z,22.33
2022-08-19T08:33:49.492Z,22.26
2022-08-19T08:36:18.190Z,22.34
2022-08-19T08:38:47.256Z,22.31
2022-08-19T08:41:43.338Z,22.40
2022-08-19T08:44:23.542Z,22.39
2022-08-19T08:47:05.567Z,22.47
2022-08-19T08:50:02.284Z,22.46
2022-08-19T08:52:43.628Z,22.45
2022-08-19T08:55:28.763Z,22.33
2022-08-19T08:59:00.798Z,22.23
2022-08-19T09:01:30.146Z,22.25
2022-08-19T09:04:02.704Z,22.21
2022-08-19T09:07:35.092Z,22.28
2022-08-19T09:10:45.205Z,22.40
2022-08-19T09:13:27.206Z,22.45
2022-08-19T09:16:14.024Z,22.44
2022-08-19T09:18:58.860Z,22.31
2022-08-19T09:21:33.068Z,22.24
2022-08-19T09:24:00.794Z,22.14
2022-08-19T09:26:47.684Z,22.19
2022-08-19T09:29:22.650Z,22.16
2022-08-19T09:31:51.119Z,22.28
2022-08-19T09:34:22.209Z,22.54
2022-08-19T09:36:54.843Z,22.68
2022-08-19T09:39:23.043Z,22.82
2022-08-19T09:41:51.051Z,22.90
2022-08-19T09:44:21.355Z,22.77
2022-08-19T09:46:49.442Z,22.68
2022-08-19T09:49:20.146Z,22.71
2022-08-19T09:51:55.501Z,22.83
2022-08-19T09:54:25.231Z,22.79
2022-08-19T09:56:55.491Z,22.76
2022-08-19T09:59:23.548Z,22.62
2022-08-19T10:01:52.852Z,22.56
2022-08-19T10:04:22.621Z,22.59
2022-08-19T10:06:53.666Z,22.67
2022-08-19T10:09:26.357Z,22.78
2022-08-19T10:12:06.873Z,22.81
2022-08-19T10:14:38.759Z,23.01
2022-08-19T10:17:17.706Z,23.04
2022-08-19T10:19:56.007Z,23.03
2022-08-19T10:22:25.596Z,22.99
2022-08-19T10:24:54.194Z,22.87
2022-08-19T10:27:21.743Z,22.54
2022-08-19T10:29:49.048Z,22.25
2022-08-19T10:32:16.604Z,22.16
2022-08-19T10:34:48.375Z,22.00
2022-08-19T10:37:23.821Z,21.99
2022-08-19T10:39:56.533Z,22.03
2022-08-19T10:42:24.185Z,22.01
2022-08-19T10:44:52.023Z,21.96
2022-08-19T10:47:25.512Z,21.92
2022-08-19T10:50:15.787Z,21.85
2022-08-19T10:52:50.834Z,21.89
2022-08-19T10:55:43.388Z,21.99
2022-08-19T10:58:24.767Z,22.05
2022-08-19T11:01:00.689Z,22.05
2022-08-19T11:03:31.714Z,21.86
2022-08-19T11:06:09.332Z,21.88
2022-08-19T11:08:41.840Z,21.85
2022-08-19T11:11:10.182Z,21.88
2022-08-19T11:13:43.762Z,21.88
2022-08-19T11:16:23.998Z,21.88
2022-08-19T11:19:02.178Z,21.87
2022-08-19T11:21:35.865Z,21.86
2022-08-19T11:24:12.994Z,21.88
2022-08-19T11:26:44.380Z,21.86
2022-08-19T11:29:14.413Z,21.88
2022-08-19T11:31:49.080Z,21.98
2022-08-19T11:34:26.292Z,21.91
2022-08-19T11:37:00.577Z,22.00
2022-08-19T11:39:33.384Z,22.07
2022-08-19T11:42:25.629Z,22.04
2022-08-19T11:44:53.793Z,22.03
2022-08-19T11:47:21.311Z,22.05
2022-08-19T11:49:49.043Z,22.09
2022-08-19T11:52:16.109Z,22.11
2022-08-19T11:54:43.150Z,22.12
2022-08-19T11:57:10.224Z,22.13
2022-08-19T11:59:37.324Z,22.25
2022-08-19T12:02:04.600Z,22.20
2022-08-19T12:04:31.632Z,22.24
2022-08-19T12:06:58.720Z,22.31
2022-08-19T12:09:25.917Z,22.31
2022-08-19T12:11:58.092Z,22.22
2022-08-19T12:14:25.210Z,22.22
2022-08-19T12:16:52.619Z,22.31
2022-08-19T12:19:22.268Z,22.41
2022-08-19T12:21:54.114Z,22.39
2022-08-19T12:24:24.322Z,22.44
2022-08-19T12:26:53.247Z,22.66
2022-08-19T12:29:24.000Z,22.75
2022-08-19T12:31:52.590Z,22.66
2022-08-19T12:34:21.203Z,22.53
2022-08-19T12:36:50.518Z,22.48
2022-08-19T12:39:17.895Z,22.58
2022-08-19T12:41:54.523Z,22.56
2022-08-19T12:44:28.919Z,22.63
2022-08-19T12:46:58.186Z,22.72
2022-08-19T12:49:52.077Z,22.74
2022-08-19T12:52:17.021Z,22.89
2022-08-19T12:54:54.631Z,22.91
2022-08-19T12:57:32.592Z,22.94
2022-08-19T13:00:18.069Z,22.89
2022-08-19T13:02:51.535Z,22.87
2022-08-19T13:05:34.479Z,22.83
2022-08-19T13:08:02.697Z,22.69
2022-08-19T13:10:36.274Z,22.57
2022-08-19T13:13:10.784Z,22.46
2022-08-19T13:15:43.843Z,22.40
2022-08-19T13:18:13.591Z,22.45
2022-08-19T13:20:41.881Z,22.56
2022-08-19T13:23:11.313Z,22.59
2022-08-19T13:25:38.424Z,22.81
2022-08-19T13:28:07.618Z,22.79
2022-08-19T13:30:53.590Z,22.98
2022-08-19T13:33:21.307Z,22.95
2022-08-19T13:35:58.023Z,22.96
2022-08-19T13:38:26.269Z,22.73
2022-08-19T13:40:56.827Z,22.64
2022-08-19T13:43:27.798Z,22.53
2022-08-19T13:45:57.600Z,22.55
2022-08-19T13:48:28.617Z,22.47
2022-08-19T13:50:56.743Z,22.33
2022-08-19T13:53:24.656Z,22.20
2022-08-19T13:55:52.265Z,22.05
2022-08-19T13:58:19.516Z,22.09
2022-08-19T14:00:48.602Z,22.15
2022-08-19T14:03:15.855Z,22.28
2022-08-19T14:05:43.241Z,22.43
2022-08-19T14:08:10.466Z,22.73
2022-08-19T14:10:37.615Z,23.08
2022-08-19T14:13:05.803Z,23.36
2022-08-19T14:15:33.355Z,23.70
2022-08-19T14:18:00.678Z,23.82
2022-08-19T14:20:27.894Z,23.49
2022-08-19T14:22:56.778Z,23.54
2022-08-19T14:25:30.357Z,23.76
2022-08-19T14:27:59.167Z,23.91
2022-08-19T14:30:32.697Z,23.63
2022-08-19T14:33:03.238Z,23.67
2022-08-19T14:35:35.691Z,23.65
2022-08-19T14:38:18.607Z,23.62
2022-08-19T14:40:50.057Z,23.49
2022-08-19T14:43:18.759Z,23.55
2022-08-19T14:45:45.795Z,23.56
2022-08-19T14:48:19.498Z,23.61
2022-08-19T14:50:47.643Z,23.71
2022-08-19T14:53:16.879Z,23.51
2022-08-19T14:55:47.097Z,23.43
2022-08-19T14:58:29.542Z,23.12
2022-08-19T15:01:00.508Z,22.89
2022-08-19T15:03:29.529Z,22.94
2022-08-19T15:05:58.691Z,22.79
2022-08-19T15:08:29.508Z,22.65
2022-08-19T15:10:59.638Z,22.52
2022-08-19T15:13:30.503Z,22.42
2022-08-19T15:15:58.295Z,22.26
2022-08-19T15:18:25.848Z,22.17
2022-08-19T15:20:53.142Z,22.14
2022-08-19T15:23:22.520Z,22.01
2022-08-19T15:25:55.947Z,21.89
2022-08-19T15:28:27.290Z,21.77
2022-08-19T15:30:55.054Z,21.70
2022-08-19T15:33:22.051Z,21.70
2022-08-19T15:35:52.732Z,21.71
2022-08-19T15:38:26.054Z,21.67
2022-08-19T15:40:53.825Z,21.60
2022-08-19T15:43:23.989Z,21.59
2022-08-19T15:45:51.110Z,21.70
2022-08-19T15:48:18.203Z,21.70
2022-08-19T15:50:45.307Z,21.71
2022-08-19T15:53:12.442Z,21.79
2022-08-19T15:55:46.353Z,21.76
2022-08-19T15:58:34.701Z,21.79
2022-08-19T16:01:27.007Z,21.73
2022-08-19T16:04:16.609Z,21.67
2022-08-19T16:06:51.665Z,21.75
2022-08-19T16:09:26.634Z,21.65
2022-08-19T16:12:02.373Z,21.68
2022-08-19T16:14:35.307Z,21.64
2022-08-19T16:17:03.211Z,21.55
2022-08-19T16:19:32.547Z,21.46
2022-08-19T16:21:59.602Z,21.54
2022-08-19T16:24:29.504Z,21.46
2022-08-19T16:26:57.507Z,21.41
2022-08-19T16:29:33.844Z,21.43
2022-08-19T16:32:11.509Z,21.38
2022-08-19T16:34:42.886Z,21.38
2022-08-19T16:37:10.747Z,21.38
2022-08-19T16:39:39.704Z,21.27
2022-08-19T16:42:15.443Z,21.24
2022-08-19T16:44:45.903Z,21.16
2022-08-19T16:47:16.885Z,21.14
2022-08-19T16:49:54.290Z,21.09
2022-08-19T16:52:26.269Z,21.06
2022-08-19T16:54:54.664Z,21.01
2022-08-19T16:57:23.912Z,21.02
2022-08-19T16:59:52.430Z,20.97
2022-08-19T17:02:23.381Z,20.89
2022-08-19T17:04:57.274Z,20.82
2022-08-19T17:07:28.536Z,20.83
2022-08-19T17:09:57.146Z,20.81
2022-08-19T17:12:30.475Z,20.80
2022-08-19T17:15:07.195Z,20.88
2022-08-19T17:17:34.944Z,20.79
2022-08-19T17:20:03.380Z,20.71
2022-08-19T17:22:30.545Z,20.65
2022-08-19T17:24:58.586Z,20.59
2022-08-19T17:27:31.321Z,20.53
2022-08-19T17:30:02.692Z,20.57
2022-08-19T17:32:35.261Z,20.53
2022-08-19T17:35:04.865Z,20.51
2022-08-19T17:37:34.239Z,20.47
2022-08-19T17:40:07.670Z,20.48
2022-08-19T17:42:36.728Z,20.47
2022-08-19T17:45:05.938Z,20.46
2022-08-19T17:47:33.524Z,20.44
2022-08-19T17:50:00.673Z,20.44
2022-08-19T17:52:27.990Z,20.44
2022-08-19T17:54:55.110Z,20.46
2022-08-19T17:57:22.348Z,20.46
2022-08-19T17:59:49.538Z,20.44
2022-08-19T18:02:21.422Z,20.39
2022-08-19T18:04:49.148Z,20.37
2022-08-19T18:07:17.072Z,20.38
2022-08-19T18:09:49.468Z,20.35
2022-08-19T18:12:26.701Z,20.25
2022-08-19T18:14:53.879Z,20.24
2022-08-19T18:17:23.286Z,20.26
2022-08-19T18:19:50.742Z,20.17
2022-08-19T18:22:59.386Z,20.14
2022-08-19T18:25:46.861Z,20.06
2022-08-19T18:28:14.200Z,20.18
2022-08-19T18:30:41.337Z,20.11
2022-08-19T18:33:16.298Z,20.03
2022-08-19T18:35:48.979Z,20.05
2022-08-19T18:38:53.536Z,19.98
2022-08-19T18:41:39.096Z,20.02
2022-08-19T18:44:24.969Z,19.93
2022-08-19T18:47:14.550Z,20.01
2022-08-19T18:49:41.678Z,19.98
2022-08-19T18:52:08.743Z,19.96
2022-08-19T18:54:36.935Z,19.90
2022-08-19T18:57:05.842Z,19.87
2022-08-19T18:59:33.063Z,19.85
2022-08-19T19:02:02.433Z,19.84
2022-08-19T19:04:37.432Z,19.80
2022-08-19T19:07:09.176Z,19.81
2022-08-19T19:09:38.242Z,19.82
2022-08-19T19:12:14.182Z,19.81
2022-08-19T19:14:50.294Z,19.78
2022-08-19T19:17:18.370Z,19.77
2022-08-19T19:19:45.778Z,19.73
2022-08-19T19:22:20.483Z,19.71
2022-08-19T19:24:49.013Z,19.72
2022-08-19T19:27:20.696Z,19.71
2022-08-19T19:29:52.326Z,19.72
2022-08-19T19:32:29.531Z,19.71
2022-08-19T19:34:56.806Z,19.70
2022-08-19T19:37:23.955Z,19.72
2022-08-19T19:39:52.658Z,19.73
2022-08-19T19:42:24.087Z,19.72
2022-08-19T19:44:55.775Z,19.71
2022-08-19T19:47:28.571Z,19.71
2022-08-19T19:50:14.845Z,19.71
2022-08-19T19:52:46.790Z,19.71
2022-08-19T19:55:18.204Z,19.69
2022-08-19T19:57:49.341Z,19.71
2022-08-19T20:00:19.237Z,19.71
2022-08-19T20:02:50.339Z,19.71
2022-08-19T20:05:23.318Z,19.66
2022-08-19T20:08:13.463Z,19.62
2022-08-19T20:10:44.344Z,19.63
2022-08-19T20:13:15.658Z,19.60
2022-08-19T20:15:43.894Z,19.61
2022-08-19T20:18:14.815Z,19.63
2022-08-19T20:20:45.539Z,19.68
2022-08-19T20:23:13.436Z,19.68
2022-08-19T20:25:40.381Z,19.72
2022-08-19T20:28:08.828Z,19.71
2022-08-19T20:30:36.156Z,19.70
2022-08-19T20:33:07.081Z,19.69
2022-08-19T20:35:37.661Z,19.75
2022-08-19T20:38:08.785Z,19.68
2022-08-19T20:40:37.919Z,19.64
2022-08-19T20:43:12.412Z,19.61
2022-08-19T20:45:40.146Z,19.54
2022-08-19T20:48:12.363Z,19.57
2022-08-19T20:50:39.674Z,19.56
2022-08-19T20:53:20.567Z,19.57
2022-08-19T20:55:49.947Z,19.59
2022-08-19T20:58:21.241Z,19.61
2022-08-19T21:00:51.302Z,19.63
2022-08-19T21:03:26.576Z,19.60
2022-08-19T21:05:55.860Z,19.60
2022-08-19T21:08:25.773Z,19.54
2022-08-19T21:10:56.455Z,19.54
2022-08-19T21:13:25.419Z,19.50
2022-08-19T21:15:53.191Z,19.52
2022-08-19T21:18:23.380Z,19.56
2022-08-19T21:20:51.252Z,19.56
2022-08-19T21:23:28.919Z,19.56
2022-08-19T21:26:01.011Z,19.51
2022-08-19T21:28:35.031Z,19.53
2022-08-19T21:31:06.879Z,19.55
2022-08-19T21:33:34.043Z,19.56
2022-08-19T21:36:01.136Z,19.55
2022-08-19T21:38:28.230Z,19.53
2022-08-19T21:40:55.939Z,19.49
2022-08-19T21:43:25.044Z,19.51
2022-08-19T21:45:52.268Z,19.48
2022-08-19T21:48:19.884Z,19.42
2022-08-19T21:50:48.789Z,19.46
2022-08-19T21:53:19.581Z,19.41
2022-08-19T21:55:53.661Z,19.42
2022-08-19T21:58:29.243Z,19.39
2022-08-19T22:01:00.573Z,19.40
2022-08-19T22:03:28.313Z,19.39
2022-08-19T22:05:55.406Z,19.40
2022-08-19T22:08:23.105Z,19.38
2022-08-19T22:10:50.854Z,19.37
2022-08-19T22:13:20.332Z,19.34
2022-08-19T22:15:50.464Z,19.34
2022-08-19T22:18:19.201Z,19.34
2022-08-19T22:20:47.981Z,19.35
2022-08-19T22:23:15.269Z,19.36
2022-08-19T22:25:47.361Z,19.35
2022-08-19T22:28:19.111Z,19.34
2022-08-19T22:30:56.222Z,19.33
2022-08-19T22:33:25.892Z,19.28
2022-08-19T22:35:53.924Z,19.25
2022-08-19T22:38:21.453Z,19.23
2022-08-19T22:40:52.605Z,19.20
2022-08-19T22:43:30.306Z,19.21
2022-08-19T22:46:00.408Z,19.19
2022-08-19T22:48:32.697Z,19.19
2022-08-19T22:51:19.783Z,19.19
2022-08-19T22:53:48.140Z,19.14
2022-08-19T22:56:19.214Z,19.16
2022-08-19T22:58:49.993Z,19.15
2022-08-19T23:01:30.290Z,19.13
2022-08-19T23:04:00.180Z,19.05
2022-08-19T23:06:33.532Z,19.08
2022-08-19T23:09:04.716Z,19.05
2022-08-19T23:11:35.804Z,19.06
2022-08-19T23:14:08.816Z,19.06
2022-08-19T23:16:36.166Z,19.09
2022-08-19T23:19:03.609Z,19.08
2022-08-19T23:21:31.057Z,19.06
2022-08-19T23:23:58.269Z,19.06
2022-08-19T23:26:25.315Z,19.05
2022-08-19T23:29:24.876Z,19.05
2022-08-19T23:31:52.154Z,19.04
2022-08-19T23:34:20.514Z,19.05
2022-08-19T23:36:48.476Z,19.05
2022-08-19T23:39:15.519Z,19.06
2022-08-19T23:41:42.606Z,19.05
2022-08-19T23:44:14.693Z,19.08
2022-08-19T23:46:54.484Z,19.07
2022-08-19T23:49:24.778Z,19.11
2022-08-19T23:51:54.632Z,19.08
2022-08-19T23:54:22.073Z,19.06
2022-08-19T23:57:01.322Z,19.06
2022-08-19T23:59:28.375Z,19.07
